x

N01 - Northeast Channel (44024) Wave Buoy

10:04am - Mon 30th Mar 2015 All times are ADT. -3 hours from GMT.

  • Sig Wave height 3.3ft
  • Peak Period 11s
  • Wind
    9mph, 11mph gusts
  • Sea Temp 35°f
  • Air Temp 35°f
  • Sea Pressure 1016.5mb
  • N01 - Northeast Channel
  • N01 - Northeast Channel

More Historic Weather Station data

Upgrade to MSW Pro to gain access to the past 30 days of data for over 8000 Wavebouys and Weather Stations around the globe.

Join Pro

Comparision Forecast

View Surf forecast
   
Mon 03/30 10:04am 3.5ft 11s 9 11 mph 1016.5mb 35f 35f
9:04am 3.5ft 11s 7 11 mph 1017.3mb 35f 33f
8:04am 4ft 11s 4 7 mph 1017.6mb 35f 33f
7:04am 4.5ft 11s 7 9 mph 1018mb 36f 32f
6:04am 4.5ft 11s 7 9 mph 1017.6mb 36f 32f
5:04am 5ft 11s 2 4 mph 1017mb 36f 31f
4:04am 5.5ft 11s 7 9 mph 1017.8mb 37f 31f
3:04am 5.5ft 11s 4 7 mph 1018.3mb 37f 31f
2:04am 5ft 11s 4 7 mph 1018.7mb 37f 31f
1:04am 6ft 11s 7 11 mph 1019.4mb 37f 32f
12:04am 6ft 11s 7 9 mph 1019.5mb 37f 32f
Sun 03/29 11:04pm 6.5ft 11s 7 9 mph 1019.7mb 37f 32f
10:04pm 7ft 11s 9 11 mph 1019.8mb 37f 32f
9:04pm 7ft 11s 9 13 mph 1019.5mb 37f 32f
8:04pm 7ft 11s 9 11 mph 1018.9mb 37f 32f
7:04pm 7.5ft 11s 11 13 mph 1018.8mb 37f 33f
6:04pm 9ft 11s 13 18 mph 1018.1mb 37f 33f
5:04pm 8ft 11s 13 18 mph 1017.8mb 37f 33f
4:04pm 8ft 11s 11 16 mph 1018.1mb 37f 33f
3:04pm 9ft 11s 13 18 mph 1018mb 37f 33f
2:04pm 9ft 11s 13 18 mph 1018.4mb 37f 34f
1:04pm 10.5ft 11s 13 16 mph 1018.7mb 37f 34f
12:04pm 10ft 11s 13 16 mph 1018.8mb 37f 35f
11:04am 12.5ft 11s 7 9 mph 1018.4mb 37f 36f
10:04am 9ft 11s 4
mph
1017.5mb 37f 37f
9:04am 9ft 11s 4 7 mph 1017mb 36f 35f
1:04am  -   -  29 36 mph - 37f 32f
Sat 03/28 5:04pm  -   -  34 40 mph - 37f 33f
4:04pm 14ft 6s 31 40 mph 996.6mb 37f 34f
3:04pm 14ft 8s 31 38 mph 997.8mb 37f 34f
2:04pm 13ft 11s 29 36 mph 999mb 38f 35f
1:04pm 15ft 11s 29 34 mph 999.7mb 38f 35f
12:04pm 14ft 11s 27 36 mph 1000.3mb 38f 35f
11:04am 13ft 11s 34 40 mph 999mb 37f 35f
10:04am 15ft 11s 31 36 mph 1001.8mb 37f 35f
9:04am  -   -  27 31 mph 1002.3mb 37f 36f
8:04am 11ft 11s 22 27 mph 1003.9mb 37f 36f
7:04am 12ft 11s 18 22 mph 1004.2mb 37f 36f
6:04am 9.5ft 11s 18 22 mph 1004mb 37f 36f
5:04am 10ft 11s 16 20 mph 1004mb 37f 36f
4:04am 10ft 11s 16 20 mph 1004.4mb 38f 37f
3:04am 10ft 11s 16 20 mph 1004.2mb 38f 38f
2:04am  -   -  13 20 mph 1004.5mb - 38f
1:04am 10.5ft 11s 13 16 mph 1004.5mb 38f 38f
12:04am  -   -  11 16 mph 1004.1mb - 38f
Fri 03/27 11:04pm 11ft 11s 13 18 mph 1004.3mb 38f 38f
10:04pm  -   -  11 16 mph 1003.9mb - 38f
9:04pm 11.5ft 11s 13 18 mph 1003.6mb 38f 38f
8:04pm  -   -  16 20 mph 1002.4mb - 38f
7:04pm 14ft 11s 13 22 mph 1002mb 38f 38f
6:04pm 12ft 11s 16 20 mph 1000.6mb 38f 38f
5:04pm 10.5ft 11s 16 20 mph 1000.7mb 38f 38f
4:04pm 13ft 11s 13 18 mph 1001.2mb 38f 38f
3:04pm 12ft 11s 11 13 mph 1001.2mb 38f 38f
2:04pm 13ft 11s 11 18 mph 1002mb 38f 37f
1:04pm  -   -  11 16 mph 1002.5mb - 37f
11:04am  -   -  9 11 mph 1001.6mb - 40f
10:04am 11.5ft 11s 11 13 mph 1001.8mb 38f 41f
9:04am 12ft 8s 13 16 mph 1001.4mb 38f 42f
8:04am  -   -  16 18 mph 1001.1mb - 43f
7:04am 13.5ft 11s 18 22 mph 1001.2mb 38f 44f
5:04am 14ft 11s 31 38 mph 1001.1mb 38f 48f
4:04am 15ft 11s 29 34 mph 1001.1mb 38f 46f
3:04am 13.5ft 8s  -  mph - 38f -
2:04am 13.5ft 11s  -  mph - 38f -
1:04am 13ft 8s 29 36 mph 1004.8mb 38f 47f
Thu 03/26 11:04pm 11ft 8s 27 31 mph 1006.9mb 38f 46f
10:04pm 10.5ft 8s 27 34 mph 1007.4mb 38f 46f
9:04pm 8.5ft 8s 27 31 mph 1007.7mb 38f 46f
8:04pm 7.5ft 8s 27 34 mph 1008.2mb 38f 46f
7:04pm 7.5ft 8s 25 31 mph 1008.7mb 38f 45f
6:04pm  -   -  22 27 mph 1009.4mb - 44f
5:04pm 9ft 6s 22 27 mph 1010.2mb 37f 44f
4:04pm 10ft 8s 25 29 mph 1011mb 38f 44f
3:04pm 7.5ft 6s 18 22 mph 1012.2mb 38f 43f